Time;durP1;ratioP1;P1;durP2;ratioP2;P2;SDS_P1;SDS_P2;PMS_P1;PMS_P2;Temp;Humidity;BMP_temperature;BMP_pressure;BME280_temperature;BME280_humidity;BME280_pressure;Samples;Min_cycle;Max_cycle;Signal;HPM_P1;HPM_P2
2021/12/31 00:00:09;;;;;;;18.35;3.42;;;;;;;;;;4953528;28;20043;-81
2021/12/31 00:02:35;;;;;;;19.17;4.05;;;;;;;;;;4953603;28;20023;-81
2021/12/31 00:05:01;;;;;;;13.00;2.83;;;;;;;;;;4946188;28;20031;-82
2021/12/31 00:07:27;;;;;;;16.63;2.95;;;;;;;;;;4953607;28;20030;-82
2021/12/31 00:09:59;;;;;;;9.63;2.35;;;;;;;;;;4947189;28;20026;-81
2021/12/31 00:12:28;;;;;;;10.95;2.30;;;;;;;;;;4945455;28;20077;-81
2021/12/31 00:14:54;;;;;;;8.05;1.73;;;;;;;;;;4953758;28;20033;-81
2021/12/31 00:17:20;;;;;;;11.60;2.83;;;;;;;;;;4944756;28;20513;-81
2021/12/31 00:19:48;;;;;;;17.17;3.00;;;;;;;;;;4951748;28;20795;-82
2021/12/31 00:24:43;;;;;;;9.43;2.60;;;;;;;;;;4961202;28;20123;-81
2021/12/31 00:27:09;;;;;;;17.95;3.95;;;;;;;;;;4950781;28;20082;-81
2021/12/31 00:29:35;;;;;;;20.35;2.95;;;;;;;;;;4954741;28;20046;-83
2021/12/31 00:32:01;;;;;;;13.20;2.97;;;;;;;;;;4944010;28;20413;-81
2021/12/31 00:34:28;;;;;;;18.10;2.83;;;;;;;;;;4959661;28;20591;-82
2021/12/31 00:36:54;;;;;;;21.70;3.55;;;;;;;;;;4945959;28;20027;-81
2021/12/31 00:39:20;;;;;;;18.67;3.30;;;;;;;;;;4946662;28;20141;-81
2021/12/31 00:41:47;;;;;;;10.00;2.50;;;;;;;;;;4940007;28;20175;-82
2021/12/31 00:44:14;;;;;;;15.75;2.58;;;;;;;;;;4941073;28;20039;-81
2021/12/31 00:46:40;;;;;;;11.45;2.33;;;;;;;;;;4956837;28;20494;-82
2021/12/31 00:49:06;;;;;;;13.60;3.50;;;;;;;;;;4949343;28;20037;-80
2021/12/31 00:51:33;;;;;;;28.27;3.58;;;;;;;;;;4942040;28;20034;-81
2021/12/31 00:53:59;;;;;;;13.75;3.15;;;;;;;;;;4946278;28;20171;-81
2021/12/31 00:56:32;;;;;;;18.20;2.72;;;;;;;;;;4945630;28;20514;-82
2021/12/31 00:58:58;;;;;;;21.58;3.40;;;;;;;;;;4944664;28;20385;-82
2021/12/31 01:01:25;;;;;;;10.48;3.15;;;;;;;;;;4948145;28;20043;-81
2021/12/31 01:03:51;;;;;;;12.02;2.92;;;;;;;;;;4939117;28;20522;-81
2021/12/31 01:06:18;;;;;;;18.33;3.80;;;;;;;;;;4950139;28;20039;-81
2021/12/31 01:08:44;;;;;;;20.48;3.40;;;;;;;;;;4943465;28;20046;-81
2021/12/31 01:11:10;;;;;;;13.95;3.50;;;;;;;;;;4949956;28;20074;-81
2021/12/31 01:13:51;;;;;;;15.07;3.15;;;;;;;;;;4938094;28;20478;-82
2021/12/31 01:16:19;;;;;;;11.07;2.28;;;;;;;;;;4946475;28;20038;-81
2021/12/31 01:21:20;;;;;;;12.02;2.03;;;;;;;;;;4953724;28;20448;-81
2021/12/31 01:23:46;;;;;;;15.43;2.70;;;;;;;;;;4945920;28;20031;-81
2021/12/31 01:26:12;;;;;;;13.30;3.45;;;;;;;;;;4945022;28;20031;-81
2021/12/31 01:28:38;;;;;;;17.60;2.38;;;;;;;;;;4947854;28;20479;-82
2021/12/31 01:31:05;;;;;;;12.27;2.63;;;;;;;;;;4950081;28;20050;-81
2021/12/31 01:33:32;;;;;;;20.30;2.72;;;;;;;;;;4947493;28;20037;-81
2021/12/31 01:35:58;;;;;;;12.82;3.10;;;;;;;;;;4944101;28;20137;-82
2021/12/31 01:38:24;;;;;;;6.10;2.28;;;;;;;;;;4945901;28;20134;-82
2021/12/31 01:40:50;;;;;;;14.05;2.88;;;;;;;;;;4960331;28;20031;-81
2021/12/31 01:43:17;;;;;;;10.80;2.45;;;;;;;;;;4959191;28;20704;-82
2021/12/31 01:45:46;;;;;;;18.10;3.75;;;;;;;;;;4943903;28;20027;-81
2021/12/31 01:48:25;;;;;;;24.33;3.17;;;;;;;;;;4944641;28;20487;-81
2021/12/31 01:50:51;;;;;;;20.67;2.53;;;;;;;;;;4948629;28;20027;-81
2021/12/31 01:53:18;;;;;;;18.60;2.78;;;;;;;;;;4936018;28;20023;-81
2021/12/31 01:55:44;;;;;;;8.02;2.25;;;;;;;;;;4947211;28;20086;-82
2021/12/31 01:58:12;;;;;;;18.80;2.90;;;;;;;;;;4944543;28;21015;-81
2021/12/31 02:00:45;;;;;;;20.90;4.03;;;;;;;;;;4953324;28;20051;-82
2021/12/31 02:03:18;;;;;;;8.77;2.42;;;;;;;;;;4946772;28;20398;-81
2021/12/31 02:05:45;;;;;;;18.80;3.55;;;;;;;;;;4939688;28;20071;-82
2021/12/31 02:08:11;;;;;;;10.35;3.05;;;;;;;;;;4943374;28;20031;-82
2021/12/31 02:10:37;;;;;;;10.75;2.83;;;;;;;;;;4939466;28;20072;-82
2021/12/31 02:13:04;;;;;;;15.55;3.78;;;;;;;;;;4939882;28;20080;-81
2021/12/31 02:15:30;;;;;;;18.30;4.82;;;;;;;;;;4939891;28;20083;-81
2021/12/31 02:17:59;;;;;;;6.65;2.35;;;;;;;;;;4942081;28;20570;-81
2021/12/31 02:20:34;;;;;;;15.32;3.22;;;;;;;;;;4936068;28;20042;-81
2021/12/31 02:23:06;;;;;;;10.77;2.70;;;;;;;;;;4941480;28;20924;-81
2021/12/31 02:25:35;;;;;;;12.00;3.10;;;;;;;;;;4937624;28;20042;-81
2021/12/31 02:28:01;;;;;;;19.27;3.40;;;;;;;;;;4941179;28;20046;-81
2021/12/31 02:30:29;;;;;;;15.10;3.10;;;;;;;;;;4939731;28;20038;-81
2021/12/31 02:32:55;;;;;;;5.50;1.92;;;;;;;;;;4938041;28;20031;-81
2021/12/31 02:35:21;;;;;;;12.48;3.33;;;;;;;;;;4943846;28;20035;-81
2021/12/31 02:37:47;;;;;;;18.40;3.75;;;;;;;;;;4936091;28;20509;-81
2021/12/31 02:40:15;;;;;;;9.48;1.73;;;;;;;;;;4941551;28;20027;-81
2021/12/31 02:42:41;;;;;;;6.88;2.72;;;;;;;;;;4938257;28;20403;-81
2021/12/31 02:45:09;;;;;;;10.63;2.15;;;;;;;;;;4944450;28;20027;-81
2021/12/31 02:47:37;;;;;;;15.15;2.75;;;;;;;;;;4938127;28;20059;-81
2021/12/31 02:50:05;;;;;;;14.18;3.33;;;;;;;;;;4938539;28;20035;-81
2021/12/31 02:52:31;;;;;;;16.38;2.53;;;;;;;;;;4956915;28;20506;-81
2021/12/31 02:55:00;;;;;;;16.80;2.70;;;;;;;;;;4956158;28;20534;-81
2021/12/31 02:57:26;;;;;;;12.52;2.25;;;;;;;;;;4942436;28;20031;-80
2021/12/31 02:59:52;;;;;;;17.73;2.30;;;;;;;;;;4959010;28;20545;-81
2021/12/31 03:02:24;;;;;;;8.07;1.80;;;;;;;;;;4978817;28;20455;-81
2021/12/31 03:04:51;;;;;;;10.15;2.63;;;;;;;;;;4961340;28;20037;-81
2021/12/31 03:07:18;;;;;;;16.13;2.90;;;;;;;;;;4958960;28;20042;-81
2021/12/31 03:09:47;;;;;;;5.38;1.77;;;;;;;;;;4976034;28;20031;-81
2021/12/31 03:12:14;;;;;;;10.90;1.98;;;;;;;;;;4958234;28;21325;-82
2021/12/31 03:14:43;;;;;;;15.25;4.22;;;;;;;;;;4975567;28;20494;-81
2021/12/31 03:17:10;;;;;;;11.90;2.78;;;;;;;;;;4960924;28;20614;-81
2021/12/31 03:19:36;;;;;;;16.13;2.75;;;;;;;;;;4960744;28;20434;-80
2021/12/31 03:22:03;;;;;;;7.40;2.22;;;;;;;;;;4958586;28;20546;-81
2021/12/31 03:24:29;;;;;;;10.57;2.00;;;;;;;;;;4960288;28;20514;-81
2021/12/31 03:26:55;;;;;;;12.48;3.40;;;;;;;;;;4964124;28;20058;-80
2021/12/31 03:29:21;;;;;;;10.35;2.13;;;;;;;;;;4979616;28;20382;-81
2021/12/31 03:31:47;;;;;;;7.55;1.95;;;;;;;;;;4959874;28;20046;-81
2021/12/31 03:34:14;;;;;;;11.15;2.60;;;;;;;;;;4961081;28;20391;-81
2021/12/31 03:36:41;;;;;;;8.38;1.90;;;;;;;;;;4962223;28;20379;-81
2021/12/31 03:39:07;;;;;;;9.63;2.67;;;;;;;;;;4979212;28;20034;-80
2021/12/31 03:41:33;;;;;;;5.50;1.80;;;;;;;;;;4962470;28;20487;-81
2021/12/31 03:43:59;;;;;;;8.20;2.10;;;;;;;;;;4962045;28;20042;-81
2021/12/31 03:46:25;;;;;;;3.72;1.73;;;;;;;;;;4985181;28;20509;-81
2021/12/31 03:48:51;;;;;;;13.98;2.70;;;;;;;;;;4975527;28;20035;-81
2021/12/31 03:51:17;;;;;;;7.72;2.10;;;;;;;;;;4970620;28;20034;-81
2021/12/31 03:53:43;;;;;;;13.13;2.90;;;;;;;;;;4965651;28;20034;-81
2021/12/31 03:56:09;;;;;;;11.15;2.72;;;;;;;;;;4976166;28;20493;-82
2021/12/31 03:58:35;;;;;;;8.45;1.95;;;;;;;;;;4969439;28;20117;-81
2021/12/31 04:01:08;;;;;;;6.95;2.17;;;;;;;;;;4959330;28;20754;-81
2021/12/31 04:03:41;;;;;;;18.33;3.97;;;;;;;;;;4945092;28;20033;-81
2021/12/31 04:06:07;;;;;;;6.40;2.63;;;;;;;;;;4946947;28;20399;-81
2021/12/31 04:08:33;;;;;;;3.63;1.58;;;;;;;;;;4946168;28;20031;-81
2021/12/31 04:10:59;;;;;;;3.33;1.30;;;;;;;;;;4941237;28;20039;-81
2021/12/31 04:13:25;;;;;;;6.20;2.17;;;;;;;;;;4943941;28;20074;-81
2021/12/31 04:15:51;;;;;;;16.35;3.50;;;;;;;;;;4944290;28;20054;-81
2021/12/31 04:18:17;;;;;;;2.60;1.40;;;;;;;;;;4949275;28;20030;-81
2021/12/31 04:20:45;;;;;;;6.20;1.52;;;;;;;;;;4944847;28;20514;-81
2021/12/31 04:23:28;;;;;;;6.63;1.48;;;;;;;;;;4941859;28;20482;-81
2021/12/31 04:25:54;;;;;;;4.78;1.90;;;;;;;;;;4948605;28;20392;-81
2021/12/31 04:28:21;;;;;;;5.40;1.65;;;;;;;;;;4944256;28;20065;-80
2021/12/31 04:30:47;;;;;;;11.30;2.17;;;;;;;;;;4957872;28;20038;-80
2021/12/31 04:33:13;;;;;;;15.40;2.17;;;;;;;;;;4946284;28;20470;-80
2021/12/31 04:35:39;;;;;;;12.27;2.83;;;;;;;;;;4950944;28;20031;-81
2021/12/31 04:38:05;;;;;;;10.07;2.53;;;;;;;;;;4941150;28;20023;-81
2021/12/31 04:40:31;;;;;;;5.95;2.35;;;;;;;;;;4944708;28;20038;-81
2021/12/31 04:42:57;;;;;;;19.60;3.22;;;;;;;;;;4962790;28;20114;-81
2021/12/31 04:45:25;;;;;;;8.00;2.42;;;;;;;;;;4942793;28;20110;-81
2021/12/31 04:47:51;;;;;;;7.90;3.28;;;;;;;;;;4960659;28;20547;-81
2021/12/31 04:50:17;;;;;;;5.72;2.15;;;;;;;;;;4955171;28;20106;-81
2021/12/31 04:52:43;;;;;;;9.35;2.92;;;;;;;;;;4959003;28;20094;-81
2021/12/31 04:55:09;;;;;;;10.77;3.17;;;;;;;;;;4958872;28;20031;-81
2021/12/31 04:57:36;;;;;;;10.60;1.60;;;;;;;;;;4947443;28;20085;-82
2021/12/31 05:00:04;;;;;;;21.98;2.45;;;;;;;;;;4960034;28;20023;-81
2021/12/31 05:02:30;;;;;;;5.50;2.05;;;;;;;;;;4956902;28;20147;-81
2021/12/31 05:04:56;;;;;;;18.80;1.98;;;;;;;;;;4964999;28;20503;-80
2021/12/31 05:07:22;;;;;;;1.70;1.13;;;;;;;;;;4961875;28;20074;-81
2021/12/31 05:09:48;;;;;;;8.05;2.88;;;;;;;;;;4959921;28;20031;-80
2021/12/31 05:12:20;;;;;;;7.78;2.30;;;;;;;;;;4961554;28;20027;-81
2021/12/31 05:14:47;;;;;;;4.55;1.73;;;;;;;;;;4964434;28;20026;-81
2021/12/31 05:17:13;;;;;;;8.32;2.35;;;;;;;;;;4974677;28;20518;-81
2021/12/31 05:19:43;;;;;;;5.50;1.85;;;;;;;;;;4978874;28;20033;-80
2021/12/31 05:22:10;;;;;;;8.88;1.77;;;;;;;;;;4961319;28;20026;-80
2021/12/31 05:24:37;;;;;;;8.88;2.42;;;;;;;;;;4977337;28;20381;-81
2021/12/31 05:27:03;;;;;;;7.72;1.67;;;;;;;;;;4962319;28;20041;-81
2021/12/31 05:29:29;;;;;;;5.40;1.50;;;;;;;;;;4960814;28;20044;-81
2021/12/31 05:31:55;;;;;;;7.90;2.15;;;;;;;;;;4984572;28;20458;-81
2021/12/31 05:34:21;;;;;;;5.80;1.35;;;;;;;;;;4957391;28;20034;-80
2021/12/31 05:36:48;;;;;;;4.00;1.88;;;;;;;;;;4980182;28;20041;-80
2021/12/31 05:39:14;;;;;;;12.30;2.70;;;;;;;;;;4960262;28;20022;-80
2021/12/31 05:41:40;;;;;;;6.15;2.22;;;;;;;;;;4965835;28;20044;-81
2021/12/31 05:44:07;;;;;;;2.50;1.45;;;;;;;;;;4961245;28;20030;-81
2021/12/31 05:46:37;;;;;;;7.05;2.83;;;;;;;;;;4965144;28;20066;-81
2021/12/31 05:49:04;;;;;;;3.50;1.52;;;;;;;;;;4960484;28;20038;-81
2021/12/31 05:51:31;;;;;;;5.00;2.20;;;;;;;;;;4962796;28;20030;-81
2021/12/31 05:53:57;;;;;;;10.85;2.88;;;;;;;;;;4963310;28;20023;-81
2021/12/31 05:56:23;;;;;;;4.72;1.85;;;;;;;;;;4963182;28;20033;-81
2021/12/31 05:58:50;;;;;;;5.18;1.92;;;;;;;;;;4964041;28;20941;-82
2021/12/31 06:01:16;;;;;;;5.60;2.30;;;;;;;;;;4965928;28;20082;-80
2021/12/31 06:03:42;;;;;;;4.28;2.00;;;;;;;;;;4980683;28;20268;-81
2021/12/31 06:06:08;;;;;;;9.52;2.60;;;;;;;;;;4961012;28;20163;-82
2021/12/31 06:08:34;;;;;;;6.22;2.33;;;;;;;;;;4964528;28;20121;-81
2021/12/31 06:11:00;;;;;;;8.48;2.80;;;;;;;;;;4956728;28;20554;-81
2021/12/31 06:13:27;;;;;;;8.23;2.20;;;;;;;;;;4975172;28;20097;-81
2021/12/31 06:15:57;;;;;;;3.55;1.90;;;;;;;;;;4951807;28;20034;-82
2021/12/31 06:18:24;;;;;;;4.22;2.08;;;;;;;;;;4971784;28;20026;-81
2021/12/31 06:20:50;;;;;;;3.25;1.35;;;;;;;;;;4963572;28;20044;-80
2021/12/31 06:23:16;;;;;;;9.20;2.10;;;;;;;;;;4961608;28;20039;-81
2021/12/31 06:25:42;;;;;;;3.78;1.67;;;;;;;;;;4965280;28;20402;-80
2021/12/31 06:28:08;;;;;;;8.25;2.50;;;;;;;;;;4971866;28;20033;-81
2021/12/31 06:30:34;;;;;;;9.55;2.50;;;;;;;;;;4962599;28;20391;-81
2021/12/31 06:33:00;;;;;;;3.38;1.88;;;;;;;;;;4964526;28;20030;-82
2021/12/31 06:35:27;;;;;;;5.72;2.90;;;;;;;;;;4964867;28;20442;-81
2021/12/31 06:37:54;;;;;;;3.15;1.98;;;;;;;;;;4962175;28;20034;-80
2021/12/31 06:40:22;;;;;;;4.72;1.92;;;;;;;;;;4961892;28;20030;-81
2021/12/31 06:42:48;;;;;;;5.53;1.45;;;;;;;;;;4965004;28;20041;-80
2021/12/31 06:45:14;;;;;;;12.07;1.92;;;;;;;;;;4962589;28;20022;-81
2021/12/31 06:47:40;;;;;;;3.22;1.80;;;;;;;;;;4965428;28;20022;-80
2021/12/31 06:50:06;;;;;;;9.55;2.80;;;;;;;;;;4963878;28;20061;-81
2021/12/31 06:52:39;;;;;;;13.98;2.38;;;;;;;;;;4954704;28;20036;-81
2021/12/31 06:55:12;;;;;;;12.50;2.33;;;;;;;;;;4949938;28;21102;-81
2021/12/31 06:57:38;;;;;;;7.97;2.83;;;;;;;;;;4963197;28;20729;-81
2021/12/31 07:00:05;;;;;;;6.82;2.45;;;;;;;;;;4962237;28;20394;-81
2021/12/31 07:02:31;;;;;;;4.40;2.35;;;;;;;;;;4949509;28;20050;-81
2021/12/31 07:04:57;;;;;;;4.43;2.15;;;;;;;;;;4959950;28;20387;-80
2021/12/31 07:07:23;;;;;;;2.55;1.90;;;;;;;;;;4956846;28;20042;-80
2021/12/31 07:09:49;;;;;;;5.25;1.83;;;;;;;;;;4943566;28;20404;-81
2021/12/31 07:12:15;;;;;;;5.07;2.47;;;;;;;;;;4954308;28;20027;-82
2021/12/31 07:14:41;;;;;;;6.80;2.30;;;;;;;;;;4941681;28;20471;-81
2021/12/31 07:17:08;;;;;;;7.88;2.42;;;;;;;;;;4941166;28;20029;-81
2021/12/31 07:19:34;;;;;;;4.97;2.60;;;;;;;;;;4942602;28;20050;-80
2021/12/31 07:22:01;;;;;;;2.90;1.83;;;;;;;;;;4960351;28;20561;-82
2021/12/31 07:24:27;;;;;;;10.88;2.30;;;;;;;;;;4938849;28;20382;-81
2021/12/31 07:26:53;;;;;;;4.43;2.35;;;;;;;;;;4943604;28;20047;-81
2021/12/31 07:29:19;;;;;;;4.57;1.55;;;;;;;;;;4950177;28;20035;-81
2021/12/31 07:31:45;;;;;;;4.65;1.95;;;;;;;;;;4940218;28;20403;-80
2021/12/31 07:34:11;;;;;;;9.43;2.90;;;;;;;;;;4954674;28;20028;-81
2021/12/31 07:36:37;;;;;;;9.20;2.17;;;;;;;;;;4945568;28;20079;-81
2021/12/31 07:39:07;;;;;;;2.92;1.75;;;;;;;;;;4942549;28;20034;-81
2021/12/31 07:41:33;;;;;;;3.83;1.52;;;;;;;;;;4943565;28;20042;-81
2021/12/31 07:43:59;;;;;;;16.17;1.65;;;;;;;;;;4937207;28;20027;-81
2021/12/31 07:46:25;;;;;;;8.15;1.85;;;;;;;;;;4944272;28;20116;-81
2021/12/31 07:48:51;;;;;;;4.45;1.60;;;;;;;;;;4943954;28;20130;-81
2021/12/31 07:51:18;;;;;;;4.70;1.23;;;;;;;;;;4939233;28;20119;-81
2021/12/31 07:53:44;;;;;;;4.28;1.98;;;;;;;;;;4944465;28;20030;-81
2021/12/31 07:56:10;;;;;;;10.02;2.67;;;;;;;;;;4941093;28;20245;-82
2021/12/31 07:58:36;;;;;;;5.18;2.47;;;;;;;;;;4960562;28;20026;-81
2021/12/31 08:01:03;;;;;;;4.53;1.52;;;;;;;;;;4945108;28;20055;-81
2021/12/31 08:03:31;;;;;;;4.03;1.80;;;;;;;;;;4979678;28;20027;-81
2021/12/31 08:05:57;;;;;;;4.45;1.98;;;;;;;;;;4961680;28;20441;-81
2021/12/31 08:08:23;;;;;;;6.35;2.13;;;;;;;;;;4962708;28;20034;-80
2021/12/31 08:10:49;;;;;;;3.20;1.40;;;;;;;;;;4963616;28;20394;-81
2021/12/31 08:13:15;;;;;;;4.05;1.75;;;;;;;;;;4959849;28;20403;-81
2021/12/31 08:15:41;;;;;;;4.55;2.25;;;;;;;;;;4962586;28;20027;-81
2021/12/31 08:18:07;;;;;;;3.67;1.90;;;;;;;;;;4978071;28;20027;-81
2021/12/31 08:20:35;;;;;;;12.88;6.35;;;;;;;;;;4962766;28;20042;-81
2021/12/31 08:23:09;;;;;;;6.93;2.67;;;;;;;;;;4962438;28;20031;-81
2021/12/31 08:25:36;;;;;;;11.52;3.38;;;;;;;;;;4968357;28;20411;-80
2021/12/31 08:28:05;;;;;;;2.70;1.73;;;;;;;;;;4975531;28;20026;-82
2021/12/31 08:30:31;;;;;;;2.75;1.33;;;;;;;;;;4970203;28;20136;-80
2021/12/31 08:32:57;;;;;;;8.30;2.60;;;;;;;;;;4969309;28;20065;-80
2021/12/31 08:35:26;;;;;;;1.95;1.50;;;;;;;;;;4964430;28;20466;-81
2021/12/31 08:37:52;;;;;;;3.60;1.73;;;;;;;;;;4967917;28;20022;-81
2021/12/31 08:40:18;;;;;;;5.03;1.90;;;;;;;;;;4982354;28;20031;-80
2021/12/31 08:42:44;;;;;;;6.72;2.35;;;;;;;;;;4980615;28;20057;-81
2021/12/31 08:45:10;;;;;;;5.22;2.63;;;;;;;;;;4972936;28;20043;-80
2021/12/31 08:47:36;;;;;;;4.85;2.20;;;;;;;;;;4980357;28;20050;-80
2021/12/31 08:50:02;;;;;;;8.70;2.55;;;;;;;;;;4961013;28;20447;-82
2021/12/31 08:52:28;;;;;;;4.07;2.30;;;;;;;;;;4967373;28;20034;-82
2021/12/31 08:54:54;;;;;;;2.38;1.48;;;;;;;;;;4964335;28;20406;-81
2021/12/31 08:57:20;;;;;;;7.60;2.17;;;;;;;;;;4975212;28;20574;-80
2021/12/31 08:59:46;;;;;;;7.00;2.08;;;;;;;;;;4962346;28;20022;-87
2021/12/31 09:02:19;;;;;;;5.18;2.00;;;;;;;;;;4955955;28;20582;-86
2021/12/31 09:04:46;;;;;;;4.15;1.92;;;;;;;;;;4949455;28;20175;-87
2021/12/31 09:07:12;;;;;;;7.75;1.98;;;;;;;;;;4944341;28;20027;-86
2021/12/31 09:09:38;;;;;;;5.40;2.25;;;;;;;;;;4944544;28;20410;-87
2021/12/31 09:12:04;;;;;;;16.23;2.30;;;;;;;;;;4945813;28;20027;-85
2021/12/31 09:14:30;;;;;;;9.77;1.67;;;;;;;;;;4952508;28;20030;-87
2021/12/31 09:16:57;;;;;;;3.67;1.48;;;;;;;;;;4945444;28;20490;-87
2021/12/31 09:19:23;;;;;;;3.15;1.90;;;;;;;;;;4948035;28;20027;-87
2021/12/31 09:21:49;;;;;;;2.67;1.73;;;;;;;;;;4960945;28;20599;-86
2021/12/31 09:24:15;;;;;;;4.38;2.10;;;;;;;;;;4943232;28;20041;-87
2021/12/31 09:26:47;;;;;;;4.80;1.67;;;;;;;;;;4941115;28;20045;-87
2021/12/31 09:29:17;;;;;;;4.60;1.75;;;;;;;;;;4936135;28;20392;-86
2021/12/31 09:31:43;;;;;;;7.22;2.40;;;;;;;;;;4945445;28;20522;-87
2021/12/31 09:34:09;;;;;;;7.95;1.73;;;;;;;;;;4943235;28;20031;-87
2021/12/31 09:36:34;;;;;;;7.97;2.28;;;;;;;;;;4949820;28;20482;-86
2021/12/31 09:39:00;;;;;;;2.85;1.70;;;;;;;;;;4942142;28;20031;-87
2021/12/31 09:41:27;;;;;;;3.70;2.15;;;;;;;;;;4947404;28;20039;-87
2021/12/31 09:43:53;;;;;;;8.15;2.47;;;;;;;;;;4942910;28;20078;-87
2021/12/31 09:46:20;;;;;;;3.33;1.80;;;;;;;;;;4944715;28;20499;-87
2021/12/31 09:48:46;;;;;;;9.25;1.80;;;;;;;;;;4939599;28;20468;-84
2021/12/31 09:51:12;;;;;;;4.80;2.22;;;;;;;;;;4942070;28;20376;-88
2021/12/31 09:53:38;;;;;;;6.45;2.00;;;;;;;;;;4945068;28;20526;-86
2021/12/31 09:56:04;;;;;;;6.40;2.40;;;;;;;;;;4946150;28;20170;-85
2021/12/31 09:58:30;;;;;;;5.47;2.05;;;;;;;;;;4947554;28;20483;-86
2021/12/31 10:01:00;;;;;;;9.75;2.67;;;;;;;;;;4944156;28;20403;-85
2021/12/31 10:03:33;;;;;;;4.82;1.80;;;;;;;;;;4983889;28;20061;-85
2021/12/31 10:06:01;;;;;;;5.45;2.22;;;;;;;;;;4975237;28;20065;-85
2021/12/31 10:08:28;;;;;;;4.57;1.98;;;;;;;;;;4965550;28;20491;-85
2021/12/31 10:11:05;;;;;;;8.88;2.47;;;;;;;;;;4966557;28;20157;-82
2021/12/31 10:13:31;;;;;;;3.80;2.13;;;;;;;;;;4969430;28;20069;-84
2021/12/31 10:15:57;;;;;;;12.43;3.13;;;;;;;;;;4968169;28;20046;-85
2021/12/31 10:18:31;;;;;;;4.35;1.70;;;;;;;;;;4957990;28;20023;-84
2021/12/31 10:20:57;;;;;;;9.77;3.50;;;;;;;;;;4961933;28;20041;-84
2021/12/31 10:23:23;;;;;;;16.10;3.47;;;;;;;;;;4960631;28;20030;-84
2021/12/31 10:25:49;;;;;;;4.10;2.50;;;;;;;;;;4963869;28;20484;-83
2021/12/31 10:28:16;;;;;;;10.27;2.95;;;;;;;;;;4967122;28;20123;-84
2021/12/31 10:30:43;;;;;;;9.88;2.92;;;;;;;;;;4957424;28;20031;-84
2021/12/31 10:33:16;;;;;;;10.95;4.20;;;;;;;;;;4963389;28;20077;-83
2021/12/31 10:35:44;;;;;;;9.90;2.80;;;;;;;;;;4961381;28;20134;-84
2021/12/31 10:38:14;;;;;;;11.77;2.92;;;;;;;;;;4963676;28;20121;-83
2021/12/31 10:40:43;;;;;;;6.95;2.63;;;;;;;;;;4960233;28;20077;-84
2021/12/31 10:43:10;;;;;;;9.18;3.05;;;;;;;;;;4961063;28;20406;-84
2021/12/31 10:45:36;;;;;;;6.68;3.03;;;;;;;;;;4965116;28;20620;-84
2021/12/31 10:48:09;;;;;;;6.70;2.97;;;;;;;;;;4962018;28;20121;-84
2021/12/31 10:50:37;;;;;;;8.75;2.72;;;;;;;;;;4976790;28;20545;-84
2021/12/31 10:53:12;;;;;;;7.30;2.40;;;;;;;;;;4956859;28;20030;-84
2021/12/31 10:55:40;;;;;;;17.63;2.67;;;;;;;;;;4978489;28;20030;-83
2021/12/31 10:58:07;;;;;;;5.95;2.13;;;;;;;;;;4974112;28;20039;-83
2021/12/31 11:00:37;;;;;;;5.32;2.35;;;;;;;;;;4965285;28;20064;-83
2021/12/31 11:03:16;;;;;;;3.10;1.98;;;;;;;;;;4951805;28;20082;-84
2021/12/31 11:05:43;;;;;;;10.75;2.60;;;;;;;;;;4943196;28;20042;-84
2021/12/31 11:08:12;;;;;;;12.13;2.88;;;;;;;;;;4941655;28;20073;-84
2021/12/31 11:10:38;;;;;;;4.07;1.88;;;;;;;;;;4958648;28;20071;-84
2021/12/31 11:13:09;;;;;;;7.95;3.53;;;;;;;;;;4942104;28;20392;-85
2021/12/31 11:15:35;;;;;;;15.07;4.20;;;;;;;;;;4941510;28;20058;-84
2021/12/31 11:18:01;;;;;;;5.97;2.38;;;;;;;;;;4962524;28;20027;-85
2021/12/31 11:20:28;;;;;;;8.57;2.70;;;;;;;;;;4956564;28;20027;-84
2021/12/31 11:22:54;;;;;;;9.25;3.92;;;;;;;;;;4945178;28;20083;-83
2021/12/31 11:25:22;;;;;;;11.02;3.88;;;;;;;;;;4947145;28;20039;-82
2021/12/31 11:27:49;;;;;;;6.50;3.92;;;;;;;;;;4947891;28;20045;-82
2021/12/31 11:30:38;;;;;;;12.85;3.60;;;;;;;;;;4959088;28;20031;-81
2021/12/31 11:33:08;;;;;;;9.40;3.58;;;;;;;;;;4940673;28;20078;-82
2021/12/31 11:35:34;;;;;;;7.03;2.75;;;;;;;;;;4948754;28;20083;-82
2021/12/31 11:38:02;;;;;;;10.15;3.90;;;;;;;;;;4939037;28;20054;-82
2021/12/31 11:40:31;;;;;;;13.82;4.05;;;;;;;;;;4961973;28;20065;-82
2021/12/31 11:43:16;;;;;;;4.28;2.05;;;;;;;;;;4940045;28;20022;-82
2021/12/31 11:45:42;;;;;;;11.15;6.07;;;;;;;;;;4943103;28;20035;-82
2021/12/31 11:48:26;;;;;;;11.00;4.05;;;;;;;;;;4960252;28;20202;-81
2021/12/31 11:51:05;;;;;;;24.40;5.28;;;;;;;;;;4941344;28;20062;-82
2021/12/31 11:53:31;;;;;;;18.45;4.90;;;;;;;;;;4943643;28;20054;-82
2021/12/31 11:55:57;;;;;;;4.03;2.60;;;;;;;;;;4944720;28;20113;-81
2021/12/31 11:58:37;;;;;;;13.45;5.38;;;;;;;;;;4945864;28;20035;-82
2021/12/31 12:01:22;;;;;;;6.97;2.78;;;;;;;;;;4951797;28;20031;-81
2021/12/31 12:03:48;;;;;;;12.88;3.53;;;;;;;;;;4955972;28;20082;-80
2021/12/31 12:06:33;;;;;;;10.82;3.45;;;;;;;;;;4968468;28;20121;-80
2021/12/31 12:08:59;;;;;;;10.60;3.60;;;;;;;;;;4943383;28;20438;-81
2021/12/31 12:11:43;;;;;;;11.45;4.15;;;;;;;;;;4950118;28;20051;-81
2021/12/31 12:14:29;;;;;;;16.33;5.82;;;;;;;;;;4939604;28;20027;-81
2021/12/31 12:16:58;;;;;;;7.03;3.22;;;;;;;;;;4957701;28;20027;-82
2021/12/31 12:19:44;;;;;;;14.27;4.65;;;;;;;;;;4946964;28;20050;-82
2021/12/31 12:22:10;;;;;;;5.00;2.55;;;;;;;;;;4942990;28;20038;-81
2021/12/31 12:24:36;;;;;;;4.72;2.75;;;;;;;;;;4945323;28;20031;-81
2021/12/31 12:27:02;;;;;;;6.80;2.92;;;;;;;;;;4957514;28;20487;-82
2021/12/31 12:29:28;;;;;;;8.60;3.60;;;;;;;;;;4960571;28;20041;-81
2021/12/31 12:32:08;;;;;;;6.38;2.88;;;;;;;;;;4948712;28;20036;-82
2021/12/31 12:34:34;;;;;;;3.70;1.88;;;;;;;;;;4951349;28;20041;-82
2021/12/31 12:37:01;;;;;;;8.38;2.90;;;;;;;;;;4958540;28;20057;-82
2021/12/31 12:39:27;;;;;;;6.28;2.38;;;;;;;;;;4944004;28;20035;-82
2021/12/31 12:41:54;;;;;;;4.97;2.50;;;;;;;;;;4944882;28;20071;-82
2021/12/31 12:44:20;;;;;;;7.10;2.90;;;;;;;;;;4946585;28;20045;-81
2021/12/31 12:46:54;;;;;;;7.93;2.60;;;;;;;;;;4956139;28;20037;-81
2021/12/31 12:49:20;;;;;;;4.00;2.30;;;;;;;;;;4941672;28;20133;-82
2021/12/31 12:51:48;;;;;;;4.55;2.17;;;;;;;;;;4961087;28;20030;-81
2021/12/31 12:54:19;;;;;;;5.65;2.60;;;;;;;;;;4944805;28;20033;-81
2021/12/31 12:56:45;;;;;;;4.65;2.47;;;;;;;;;;4946946;28;20033;-80
2021/12/31 12:59:19;;;;;;;7.68;2.88;;;;;;;;;;4959857;28;20081;-80
2021/12/31 13:01:46;;;;;;;3.53;2.03;;;;;;;;;;4947064;28;20550;-80
2021/12/31 13:04:23;;;;;;;12.63;3.50;;;;;;;;;;4950037;28;20043;-80
2021/12/31 13:06:56;;;;;;;6.22;2.50;;;;;;;;;;4958515;28;20031;-80
2021/12/31 13:09:23;;;;;;;5.43;3.90;;;;;;;;;;4945875;28;20035;-81
2021/12/31 13:11:53;;;;;;;12.88;3.30;;;;;;;;;;4957521;28;20034;-81
2021/12/31 13:14:21;;;;;;;6.43;3.25;;;;;;;;;;4942189;28;20023;-80
2021/12/31 13:16:52;;;;;;;5.45;3.00;;;;;;;;;;4957586;28;20036;-80
2021/12/31 13:19:28;;;;;;;4.50;2.85;;;;;;;;;;4937459;28;20431;-81
2021/12/31 13:22:23;;;;;;;10.95;4.28;;;;;;;;;;4945368;28;20085;-81
2021/12/31 13:24:55;;;;;;;8.65;4.25;;;;;;;;;;4927110;28;20121;-81
2021/12/31 13:27:21;;;;;;;10.18;5.22;;;;;;;;;;4943050;28;20521;-81
2021/12/31 13:29:49;;;;;;;8.23;4.25;;;;;;;;;;4944615;28;20046;-81
2021/12/31 13:32:19;;;;;;;3.65;2.35;;;;;;;;;;4938103;28;20033;-80
2021/12/31 13:34:49;;;;;;;4.57;2.78;;;;;;;;;;4940175;28;20038;-81
2021/12/31 13:37:26;;;;;;;10.60;3.03;;;;;;;;;;4940779;28;20031;-81
2021/12/31 13:40:03;;;;;;;6.60;3.60;;;;;;;;;;4959633;28;20027;-81
2021/12/31 13:42:29;;;;;;;8.40;3.33;;;;;;;;;;4941298;28;20023;-80
2021/12/31 13:44:56;;;;;;;4.00;1.90;;;;;;;;;;4939058;28;20062;-81
2021/12/31 13:47:25;;;;;;;7.72;2.40;;;;;;;;;;4939292;28;20548;-81
2021/12/31 13:50:02;;;;;;;7.18;2.33;;;;;;;;;;4942897;28;20050;-81
2021/12/31 13:52:34;;;;;;;11.20;2.65;;;;;;;;;;4958630;28;20030;-81
2021/12/31 13:55:20;;;;;;;6.68;2.72;;;;;;;;;;4942721;28;20467;-81
2021/12/31 13:57:46;;;;;;;;;;;;;;;;;;4945910;28;20363;-82
2021/12/31 14:00:13;;;;;;;13.43;3.22;;;;;;;;;;4959299;28;20031;-82
2021/12/31 14:02:40;;;;;;;4.43;2.28;;;;;;;;;;4952852;28;20391;-82
2021/12/31 14:05:07;;;;;;;9.15;3.40;;;;;;;;;;4960069;28;20057;-82
2021/12/31 14:07:39;;;;;;;17.40;4.00;;;;;;;;;;4945258;28;20200;-82
2021/12/31 14:10:07;;;;;;;5.80;2.80;;;;;;;;;;4949469;28;20450;-82
2021/12/31 14:12:46;;;;;;;9.77;3.42;;;;;;;;;;4942701;28;20427;-83
2021/12/31 14:15:12;;;;;;;21.85;4.97;;;;;;;;;;4946172;28;20046;-82
2021/12/31 14:17:38;;;;;;;14.65;3.88;;;;;;;;;;4941782;28;20039;-82
2021/12/31 14:20:05;;;;;;;13.90;3.30;;;;;;;;;;4946873;28;20391;-82
2021/12/31 14:22:31;;;;;;;15.30;3.15;;;;;;;;;;4938783;28;20027;-82
2021/12/31 14:24:57;;;;;;;9.30;2.78;;;;;;;;;;4946787;28;20360;-82
2021/12/31 14:27:23;;;;;;;19.38;4.57;;;;;;;;;;4944688;28;20038;-82
2021/12/31 14:29:49;;;;;;;12.82;3.55;;;;;;;;;;4924556;28;20035;-82
2021/12/31 14:32:15;;;;;;;18.15;5.72;;;;;;;;;;4941053;28;20442;-82
2021/12/31 14:34:41;;;;;;;25.02;4.40;;;;;;;;;;4940718;28;20070;-83
2021/12/31 14:37:11;;;;;;;18.13;2.80;;;;;;;;;;4943110;28;20488;-83
2021/12/31 14:39:40;;;;;;;26.58;5.38;;;;;;;;;;4940150;28;20030;-83
2021/12/31 14:42:07;;;;;;;18.10;4.78;;;;;;;;;;4943128;28;20023;-83
2021/12/31 14:44:33;;;;;;;18.98;5.03;;;;;;;;;;4940619;28;20034;-83
2021/12/31 14:47:00;;;;;;;30.38;7.07;;;;;;;;;;4946278;28;20157;-83